Time;durP1;ratioP1;P1;durP2;ratioP2;P2;SDS_P1;SDS_P2;PMS_P1;PMS_P2;Temp;Humidity;BMP_temperature;BMP_pressure;BME280_temperature;BME280_humidity;BME280_pressure;Samples;Min_cycle;Max_cycle;Signal;HPM_P1;HPM_P2
2024/02/23 00:02:19;;;;;;;19.25;7.60;;;;;;;2.59;100.00;98752.09;5055917;28;20124;-73
2024/02/23 00:04:44;;;;;;;19.00;7.78;;;;;;;2.65;100.00;98764.28;5063008;28;20039;-74
2024/02/23 00:07:10;;;;;;;19.95;8.30;;;;;;;2.64;100.00;98779.09;5061509;28;20052;-72
2024/02/23 00:09:36;;;;;;;19.58;7.63;;;;;;;2.66;100.00;98772.13;5061850;28;20095;-73
2024/02/23 00:12:02;;;;;;;20.05;7.80;;;;;;;2.69;100.00;98764.31;5062576;28;20364;-72
2024/02/23 00:14:28;;;;;;;19.33;6.65;;;;;;;2.76;100.00;98765.19;5063456;28;20021;-73
2024/02/23 00:16:53;;;;;;;20.08;7.10;;;;;;;2.71;100.00;98769.53;5067187;28;20582;-73
2024/02/23 00:19:19;;;;;;;18.70;6.15;;;;;;;2.71;100.00;98757.38;5062480;28;20047;-72
2024/02/23 00:21:49;;;;;;;17.38;5.82;;;;;;;2.74;100.00;98757.38;5066732;28;20032;-72
2024/02/23 00:24:16;;;;;;;17.58;5.68;;;;;;;2.76;100.00;98775.63;5064294;28;20041;-72
2024/02/23 00:26:42;;;;;;;17.15;5.38;;;;;;;2.75;100.00;98779.09;5047240;28;20026;-73
2024/02/23 00:29:07;;;;;;;18.25;4.93;;;;;;;2.73;100.00;98778.25;5064361;28;20078;-73
2024/02/23 00:31:32;;;;;;;18.75;5.30;;;;;;;2.76;100.00;98780.84;5064493;28;20060;-73
2024/02/23 00:33:58;;;;;;;18.50;4.80;;;;;;;2.72;100.00;98785.22;5066425;28;20075;-86
2024/02/23 00:36:23;;;;;;;14.98;4.30;;;;;;;2.75;100.00;98787.81;5063992;28;20025;-85
2024/02/23 00:38:49;;;;;;;14.98;4.38;;;;;;;2.78;100.00;98785.22;5066814;28;20068;-82
2024/02/23 00:41:14;;;;;;;16.15;4.00;;;;;;;2.79;100.00;98775.66;5062906;28;20033;-82
2024/02/23 00:43:40;;;;;;;14.85;4.30;;;;;;;2.79;100.00;98788.69;5065600;28;20021;-86
2024/02/23 00:46:07;;;;;;;16.20;4.20;;;;;;;2.77;100.00;98785.22;5064980;28;20112;-85
2024/02/23 00:48:32;;;;;;;15.82;3.85;;;;;;;2.77;100.00;98796.53;5064566;28;20044;-87
2024/02/23 00:50:57;;;;;;;15.35;3.90;;;;;;;2.78;100.00;98792.16;5065018;28;20021;-86
2024/02/23 00:53:23;;;;;;;13.82;3.97;;;;;;;2.79;100.00;98804.34;5063150;28;20456;-86
2024/02/23 00:55:48;;;;;;;13.63;3.90;;;;;;;2.80;100.00;98795.66;5066590;28;20073;-84
2024/02/23 00:58:15;;;;;;;13.20;3.63;;;;;;;2.76;100.00;98812.16;5063892;28;20096;-75
2024/02/23 01:00:41;;;;;;;16.60;3.80;;;;;;;2.75;100.00;98813.91;5065136;28;20025;-74
2024/02/23 01:03:07;;;;;;;13.48;3.50;;;;;;;2.82;100.00;98798.28;5064805;28;20125;-75
2024/02/23 01:05:32;;;;;;;14.43;3.40;;;;;;;2.77;100.00;98817.41;5063886;28;20036;-75
2024/02/23 01:07:58;;;;;;;14.52;3.20;;;;;;;2.81;100.00;98820.00;5065955;28;20404;-75
2024/02/23 01:10:23;;;;;;;13.02;3.15;;;;;;;2.86;100.00;98823.53;5063046;28;20033;-77
2024/02/23 01:12:49;;;;;;;12.48;2.83;;;;;;;2.83;100.00;98807.84;5066080;28;20028;-82
2024/02/23 01:15:14;;;;;;;11.60;3.00;;;;;;;2.83;100.00;98819.16;5062200;28;20036;-73
2024/02/23 01:17:39;;;;;;;10.88;2.70;;;;;;;2.87;100.00;98822.63;5064831;28;20053;-73
2024/02/23 01:20:05;;;;;;;13.10;2.67;;;;;;;2.90;100.00;98831.38;5063476;28;20123;-73
2024/02/23 01:22:31;;;;;;;11.02;2.67;;;;;;;2.90;100.00;98827.91;5063622;28;20049;-73
2024/02/23 01:24:56;;;;;;;12.60;2.60;;;;;;;2.92;100.00;98826.16;5065159;28;20100;-73
2024/02/23 01:27:22;;;;;;;13.70;2.63;;;;;;;2.98;100.00;98831.38;5061332;28;20044;-73
2024/02/23 01:29:48;;;;;;;12.52;2.60;;;;;;;2.92;100.00;98833.97;5064405;28;20456;-73
2024/02/23 01:32:13;;;;;;;13.70;2.50;;;;;;;2.91;100.00;98840.94;5063610;28;20456;-73
2024/02/23 01:34:39;;;;;;;11.70;2.35;;;;;;;2.92;100.00;98841.81;5064201;28;20044;-73
2024/02/23 01:37:04;;;;;;;14.80;2.42;;;;;;;2.94;100.00;98837.44;5063525;28;20471;-73
2024/02/23 01:39:29;;;;;;;12.55;2.50;;;;;;;3.03;100.00;98852.28;5061743;28;20075;-73
2024/02/23 01:41:55;;;;;;;13.35;2.70;;;;;;;3.09;100.00;98840.13;5065610;28;20103;-73
2024/02/23 01:44:21;;;;;;;14.45;2.75;;;;;;;3.09;100.00;98837.50;5062675;28;20039;-73
2024/02/23 01:46:47;;;;;;;13.63;2.60;;;;;;;3.12;100.00;98841.88;5064993;28;20127;-73
2024/02/23 01:49:13;;;;;;;12.73;2.60;;;;;;;3.19;100.00;98832.28;5063012;28;20060;-73
2024/02/23 01:51:39;;;;;;;12.63;2.50;;;;;;;3.13;100.00;98839.25;5064130;28;20556;-73
2024/02/23 01:54:05;;;;;;;15.10;2.60;;;;;;;3.20;100.00;98847.09;5064281;28;20024;-74
2024/02/23 01:56:32;;;;;;;16.95;2.78;;;;;;;3.20;100.00;98855.81;5062563;28;20384;-73
2024/02/23 01:58:59;;;;;;;12.07;2.45;;;;;;;3.24;100.00;98854.09;5065186;28;20036;-73
2024/02/23 02:01:24;;;;;;;15.07;2.40;;;;;;;3.30;100.00;98834.06;5061704;28;20021;-73
2024/02/23 02:03:50;;;;;;;12.77;2.42;;;;;;;3.33;100.00;98848.88;5065001;28;20041;-73
2024/02/23 02:06:15;;;;;;;11.32;2.50;;;;;;;3.38;100.00;98852.38;5062439;28;20132;-74
2024/02/23 02:08:41;;;;;;;15.15;2.65;;;;;;;3.54;100.00;98857.59;5063868;28;20083;-73
2024/02/23 02:11:06;;;;;;;12.63;2.50;;;;;;;3.65;100.00;98834.97;5063614;28;20103;-73
2024/02/23 02:13:32;;;;;;;12.60;2.30;;;;;;;3.68;100.00;98840.19;5062915;28;20064;-73
2024/02/23 02:16:00;;;;;;;12.02;2.30;;;;;;;3.69;100.00;98836.72;5064760;28;20028;-73
2024/02/23 02:18:25;;;;;;;15.23;2.95;;;;;;;3.67;100.00;98830.63;5061445;28;20384;-73
2024/02/23 02:20:54;;;;;;;12.60;2.30;;;;;;;3.66;100.00;98847.19;5065056;28;20078;-73
2024/02/23 02:23:19;;;;;;;13.10;2.33;;;;;;;3.63;100.00;98841.94;5060585;28;20543;-73
2024/02/23 02:25:44;;;;;;;7.00;2.38;;;;;;;3.60;100.00;98841.94;5064029;28;20120;-72
2024/02/23 02:28:10;;;;;;;10.65;2.33;;;;;;;3.57;100.00;98840.19;5063068;28;20028;-73
2024/02/23 02:30:35;;;;;;;9.27;2.20;;;;;;;3.59;100.00;98840.19;5062651;28;20037;-73
2024/02/23 02:33:01;;;;;;;14.43;2.55;;;;;;;3.62;100.00;98845.44;5064212;28;20056;-76
2024/02/23 02:35:26;;;;;;;10.05;2.30;;;;;;;3.56;100.00;98837.59;5061126;28;20554;-73
2024/02/23 02:37:51;;;;;;;9.05;2.30;;;;;;;3.57;100.00;98858.50;5064626;28;20036;-76
2024/02/23 02:40:17;;;;;;;10.75;2.40;;;;;;;3.52;100.00;98868.06;5060747;28;20025;-76
2024/02/23 02:42:42;;;;;;;12.40;2.70;;;;;;;3.53;100.00;98880.25;5063339;28;20032;-78
2024/02/23 02:45:07;;;;;;;11.38;2.60;;;;;;;3.56;100.00;98861.09;5062808;28;20439;-84
2024/02/23 02:47:33;;;;;;;14.52;2.50;;;;;;;3.57;100.00;98868.06;5062305;28;20056;-80
2024/02/23 02:49:58;;;;;;;11.65;2.60;;;;;;;3.56;100.00;98867.19;5063979;28;20028;-82
2024/02/23 02:52:24;;;;;;;14.23;2.70;;;;;;;3.52;100.00;98862.81;5061028;28;20388;-87
2024/02/23 02:54:50;;;;;;;10.38;2.42;;;;;;;3.51;100.00;98878.50;5064325;28;20081;-87
2024/02/23 02:57:15;;;;;;;11.52;2.53;;;;;;;3.51;100.00;98865.44;5061726;28;20028;-85
2024/02/23 02:59:40;;;;;;;11.05;2.50;;;;;;;3.46;100.00;98888.94;5062900;28;20043;-87
2024/02/23 03:02:06;;;;;;;12.05;2.65;;;;;;;3.50;100.00;98875.03;5064898;28;20046;-87
2024/02/23 03:04:31;;;;;;;10.63;2.40;;;;;;;3.47;100.00;98875.88;5061575;28;20546;-87
2024/02/23 03:06:56;;;;;;;11.40;2.60;;;;;;;3.52;100.00;98880.25;5064058;28;20434;-86
2024/02/23 03:09:22;;;;;;;15.43;2.78;;;;;;;3.49;100.00;98891.56;5059656;28;20060;-73
2024/02/23 03:11:47;;;;;;;13.98;2.60;;;;;;;3.43;100.00;98875.88;5063639;28;20020;-80
2024/02/23 03:14:13;;;;;;;10.82;2.38;;;;;;;3.41;100.00;98881.09;5062150;28;20056;-73
2024/02/23 03:16:38;;;;;;;12.18;2.50;;;;;;;3.44;100.00;98865.44;5062324;28;20033;-76
2024/02/23 03:19:04;;;;;;;13.50;2.55;;;;;;;3.49;100.00;98884.63;5063129;28;20085;-83
2024/02/23 03:21:30;;;;;;;11.38;2.28;;;;;;;3.49;100.00;98879.41;5061150;28;20055;-83
2024/02/23 03:23:55;;;;;;;11.38;2.40;;;;;;;3.46;100.00;98876.75;5064270;28;20024;-73
2024/02/23 03:26:21;;;;;;;11.77;2.58;;;;;;;3.45;100.00;98890.69;5060823;28;20118;-73
2024/02/23 03:28:46;;;;;;;13.48;2.60;;;;;;;3.44;100.00;98886.34;5063681;28;20486;-74
2024/02/23 03:31:12;;;;;;;10.60;2.30;;;;;;;3.40;100.00;98883.72;5061722;28;20028;-73
2024/02/23 03:33:37;;;;;;;13.45;2.50;;;;;;;3.42;100.00;98884.59;5061967;28;20067;-73
2024/02/23 03:36:03;;;;;;;11.82;2.50;;;;;;;3.42;100.00;98866.28;5063323;28;20029;-73
2024/02/23 03:38:29;;;;;;;10.95;2.42;;;;;;;3.41;100.00;98891.56;5060611;28;20491;-73
2024/02/23 03:40:55;;;;;;;13.18;2.70;;;;;;;3.38;100.00;98875.00;5063892;28;20032;-73
2024/02/23 03:43:20;;;;;;;9.35;2.30;;;;;;;3.46;100.00;98881.97;5060943;28;20076;-74
2024/02/23 03:45:46;;;;;;;12.38;2.65;;;;;;;3.57;100.00;98883.72;5061767;28;20043;-73
2024/02/23 03:48:11;;;;;;;12.05;2.55;;;;;;;3.57;100.00;98883.72;5061489;28;20028;-73
2024/02/23 03:50:37;;;;;;;11.40;2.67;;;;;;;3.58;100.00;98895.94;5065824;28;20029;-73
2024/02/23 03:53:03;;;;;;;12.88;2.80;;;;;;;3.59;100.00;98888.09;5066697;28;20464;-73
2024/02/23 03:55:28;;;;;;;16.27;2.90;;;;;;;3.59;100.00;98887.22;5064645;28;20025;-73
2024/02/23 03:57:53;;;;;;;13.75;2.80;;;;;;;3.69;100.00;98893.34;5066490;28;20108;-73
2024/02/23 04:00:20;;;;;;;12.23;2.60;;;;;;;3.73;100.00;98887.22;5063214;28;20053;-73
2024/02/23 04:02:46;;;;;;;13.40;2.95;;;;;;;3.78;100.00;98882.91;5065699;28;20056;-73
2024/02/23 04:05:11;;;;;;;15.10;2.97;;;;;;;3.77;100.00;98884.66;5065389;28;20033;-73
2024/02/23 04:07:36;;;;;;;14.65;2.70;;;;;;;3.70;100.00;98877.66;5065389;28;20357;-74
2024/02/23 04:10:04;;;;;;;15.90;2.97;;;;;;;3.72;100.00;98886.38;5065515;28;20108;-73
2024/02/23 04:12:30;;;;;;;14.52;2.85;;;;;;;3.63;100.00;98883.75;5063096;28;20037;-73
2024/02/23 04:14:56;;;;;;;13.02;2.90;;;;;;;3.69;100.00;98891.59;5067499;28;20111;-73
2024/02/23 04:17:21;;;;;;;14.20;2.80;;;;;;;3.71;100.00;98882.00;5064580;28;20517;-73
2024/02/23 04:19:47;;;;;;;13.75;2.95;;;;;;;3.66;100.00;98907.28;5066562;28;20033;-73
2024/02/23 04:22:12;;;;;;;12.57;2.70;;;;;;;3.69;100.00;98903.81;5065082;28;20437;-74
2024/02/23 04:24:39;;;;;;;14.15;3.10;;;;;;;3.75;100.00;98899.44;5065164;28;20548;-73
2024/02/23 04:27:05;;;;;;;15.98;3.38;;;;;;;3.82;100.00;98901.19;5066218;28;20557;-73
2024/02/23 04:29:32;;;;;;;15.95;3.45;;;;;;;3.87;100.00;98911.63;5062936;28;20033;-73
2024/02/23 04:31:57;;;;;;;17.05;3.20;;;;;;;3.91;100.00;98899.47;5067218;28;20115;-73
2024/02/23 04:34:23;;;;;;;14.90;3.25;;;;;;;3.92;100.00;98902.06;5063669;28;20052;-73
2024/02/23 04:36:49;;;;;;;18.40;3.40;;;;;;;3.94;100.00;98902.06;5066542;28;20042;-74
2024/02/23 04:39:14;;;;;;;14.90;3.20;;;;;;;3.90;100.00;98903.78;5064336;28;20029;-73
2024/02/23 04:41:39;;;;;;;14.65;3.50;;;;;;;3.91;100.00;98904.69;5065134;28;20104;-73
2024/02/23 04:44:05;;;;;;;14.90;3.20;;;;;;;3.90;100.00;98909.03;5065801;28;20032;-73
2024/02/23 04:46:34;;;;;;;13.23;3.30;;;;;;;3.94;100.00;98918.63;5063658;28;20549;-73
2024/02/23 04:48:59;;;;;;;15.05;3.45;;;;;;;3.96;100.00;98914.28;5066390;28;20094;-74
2024/02/23 04:51:25;;;;;;;14.85;3.50;;;;;;;3.95;100.00;98919.50;5063601;28;20025;-73
2024/02/23 04:53:50;;;;;;;16.02;3.30;;;;;;;3.96;100.00;98918.63;5066271;28;20032;-74
2024/02/23 04:56:15;;;;;;;14.15;3.30;;;;;;;3.98;100.00;98895.97;5063899;28;20029;-74
2024/02/23 04:58:42;;;;;;;15.63;3.50;;;;;;;4.05;100.00;98908.19;5065194;28;20036;-73
2024/02/23 05:01:08;;;;;;;15.57;3.60;;;;;;;4.01;100.00;98909.03;5062401;28;20060;-74
2024/02/23 05:03:33;;;;;;;12.68;3.22;;;;;;;4.07;100.00;98926.47;5063743;28;20077;-73
2024/02/23 05:05:58;;;;;;;17.52;3.40;;;;;;;4.11;100.00;98913.41;5066320;28;20025;-73
2024/02/23 05:08:24;;;;;;;16.83;3.38;;;;;;;4.13;100.00;98929.09;5061524;28;20500;-73
2024/02/23 05:10:50;;;;;;;15.25;3.47;;;;;;;4.14;100.00;98923.00;5065761;28;20391;-74
2024/02/23 05:13:16;;;;;;;18.23;3.47;;;;;;;4.11;100.00;98931.72;5063858;28;20085;-73
2024/02/23 05:15:41;;;;;;;15.35;3.08;;;;;;;4.15;100.00;98919.50;5064771;28;20116;-73
2024/02/23 05:18:07;;;;;;;14.68;3.20;;;;;;;4.18;100.00;98925.59;5064882;28;20067;-73
2024/02/23 05:20:32;;;;;;;14.82;3.10;;;;;;;4.21;100.00;98929.09;5062396;28;20052;-73
2024/02/23 05:22:57;;;;;;;13.55;3.10;;;;;;;4.22;100.00;98936.06;5066148;28;20036;-85
2024/02/23 05:25:23;;;;;;;14.02;3.17;;;;;;;4.27;100.00;98923.88;5062666;28;20036;-84
2024/02/23 05:27:48;;;;;;;14.48;3.10;;;;;;;4.21;100.00;98926.47;5065374;28;20111;-87
2024/02/23 05:30:14;;;;;;;13.25;2.95;;;;;;;4.27;100.00;98931.72;5063922;28;20103;-89
2024/02/23 05:32:39;;;;;;;15.48;3.28;;;;;;;4.26;100.00;98919.50;5062951;28;20021;-84
2024/02/23 05:35:05;;;;;;;9.73;2.60;;;;;;;4.32;100.00;98914.25;5064829;28;20029;-88
2024/02/23 05:37:31;;;;;;;14.25;2.83;;;;;;;4.35;100.00;98922.09;5062898;28;20107;-88
2024/02/23 05:39:57;;;;;;;13.45;2.78;;;;;;;4.38;100.00;98914.25;5065965;28;20501;-88
2024/02/23 05:42:22;;;;;;;15.50;3.05;;;;;;;4.39;100.00;98918.63;5062486;28;20032;-88
2024/02/23 05:44:51;;;;;;;15.20;2.75;;;;;;;4.36;100.00;98921.22;5064988;28;20047;-89
2024/02/23 05:47:17;;;;;;;14.05;2.60;;;;;;;4.36;100.00;98910.78;5063266;28;20032;-89
2024/02/23 05:49:42;;;;;;;17.15;3.10;;;;;;;4.33;100.00;98902.94;5064199;28;20384;-86
2024/02/23 05:52:08;;;;;;;13.65;2.67;;;;;;;4.37;100.00;98886.34;5064054;28;20028;-89
2024/02/23 05:54:33;;;;;;;16.80;2.70;;;;;;;4.38;100.00;98897.69;5062871;28;20040;-83
2024/02/23 05:56:59;;;;;;;12.85;2.60;;;;;;;4.39;100.00;98886.34;5063765;28;20131;-88
2024/02/23 05:59:24;;;;;;;14.85;2.88;;;;;;;4.36;100.00;98882.00;5061780;28;20029;-86
2024/02/23 06:01:52;;;;;;;13.23;2.78;;;;;;;4.44;100.00;98889.81;5065573;28;20483;-77
2024/02/23 06:04:17;;;;;;;14.13;2.92;;;;;;;4.41;100.00;98889.81;5062696;28;20041;-83
2024/02/23 06:06:45;;;;;;;12.95;3.15;;;;;;;4.46;100.00;98883.72;5065637;28;20033;-78
2024/02/23 06:09:10;;;;;;;12.07;2.70;;;;;;;4.48;100.00;98902.03;5064560;28;20092;-75
2024/02/23 06:11:36;;;;;;;15.82;2.85;;;;;;;4.51;100.00;98894.16;5063534;28;20488;-76
2024/02/23 06:14:01;;;;;;;12.57;2.70;;;;;;;4.52;100.00;98881.06;5064722;28;20029;-88
2024/02/23 06:16:26;;;;;;;13.38;2.60;;;;;;;4.51;100.00;98891.53;5061903;28;20029;-88
2024/02/23 06:18:52;;;;;;;14.20;2.63;;;;;;;4.53;100.00;98895.06;5063695;28;20029;-88
2024/02/23 06:21:17;;;;;;;15.55;2.70;;;;;;;4.55;100.00;98888.06;5062436;28;20480;-88
2024/02/23 06:23:43;;;;;;;16.30;2.80;;;;;;;4.54;100.00;98879.34;5063395;28;20025;-88
2024/02/23 06:26:10;;;;;;;14.77;2.75;;;;;;;4.54;100.00;98887.19;5063372;28;20039;-85
2024/02/23 06:28:37;;;;;;;13.40;2.80;;;;;;;4.57;100.00;98899.38;5062417;28;20032;-88
2024/02/23 06:31:03;;;;;;;17.15;2.90;;;;;;;4.58;100.00;98887.19;5064096;28;20501;-88
2024/02/23 06:33:30;;;;;;;15.20;3.10;;;;;;;4.56;100.00;98888.91;5060192;28;20522;-88
2024/02/23 06:35:56;;;;;;;13.40;2.83;;;;;;;4.57;100.00;98888.03;5064957;28;20114;-88
2024/02/23 06:38:21;;;;;;;14.68;2.83;;;;;;;4.54;100.00;98897.66;5060223;28;20119;-89
2024/02/23 06:40:47;;;;;;;15.43;2.95;;;;;;;4.59;100.00;98894.13;5062388;28;20112;-83
2024/02/23 06:43:12;;;;;;;13.30;2.67;;;;;;;4.66;100.00;98882.78;5062652;28;20036;-88
2024/02/23 06:45:37;;;;;;;14.55;2.90;;;;;;;4.67;100.00;98890.63;5062501;28;20111;-73
2024/02/23 06:48:03;;;;;;;15.15;2.70;;;;;;;4.72;100.00;98874.94;5063810;28;20075;-73
2024/02/23 06:50:29;;;;;;;15.35;2.63;;;;;;;4.68;100.00;98881.03;5061292;28;20087;-73
2024/02/23 06:52:54;;;;;;;14.80;2.70;;;;;;;4.72;100.00;98882.78;5064488;28;20025;-73
2024/02/23 06:55:20;;;;;;;18.10;2.97;;;;;;;4.68;100.00;98868.81;5061362;28;20040;-73
2024/02/23 06:57:46;;;;;;;11.60;2.65;;;;;;;4.70;100.00;98879.28;5063536;28;20053;-74
2024/02/23 07:00:12;;;;;;;17.70;3.08;;;;;;;4.71;100.00;98878.41;5062373;28;20069;-73
2024/02/23 07:02:38;;;;;;;15.88;2.80;;;;;;;4.68;100.00;98883.66;5062038;28;20496;-73
2024/02/23 07:05:04;;;;;;;12.10;2.65;;;;;;;4.78;100.00;98885.38;5063693;28;20064;-74
2024/02/23 07:07:30;;;;;;;14.25;2.60;;;;;;;4.81;100.00;98889.75;5059695;28;20396;-74
2024/02/23 07:09:56;;;;;;;11.23;2.60;;;;;;;4.81;100.00;98890.59;5064277;28;20032;-73
2024/02/23 07:12:21;;;;;;;14.15;2.60;;;;;;;4.81;100.00;98885.34;5061070;28;20035;-73
2024/02/23 07:14:47;;;;;;;15.50;2.90;;;;;;;4.79;100.00;98887.13;5061887;28;20094;-73
2024/02/23 07:17:16;;;;;;;13.80;2.70;;;;;;;4.84;100.00;98910.66;5062335;28;20107;-73
2024/02/23 07:19:42;;;;;;;10.00;2.33;;;;;;;4.82;100.00;98883.59;5061353;28;20036;-74
2024/02/23 07:22:07;;;;;;;12.45;2.40;;;;;;;4.85;100.00;98884.47;5044871;28;20028;-74
2024/02/23 07:24:32;;;;;;;15.90;3.30;;;;;;;4.78;100.00;98879.28;5060505;28;20033;-74
2024/02/23 07:26:58;;;;;;;12.75;2.60;;;;;;;4.86;100.00;98886.22;5062840;28;20036;-73
2024/02/23 07:29:23;;;;;;;14.85;2.67;;;;;;;4.89;100.00;98880.97;5060496;28;20103;-74
2024/02/23 07:31:48;;;;;;;14.48;2.60;;;;;;;4.95;100.00;98881.81;5062006;28;20033;-73
2024/02/23 07:34:14;;;;;;;13.27;2.55;;;;;;;5.02;100.00;98883.53;5061849;28;20078;-74
2024/02/23 07:36:39;;;;;;;15.43;2.80;;;;;;;5.03;100.00;98859.94;5061895;28;20098;-73
2024/02/23 07:39:05;;;;;;;15.27;2.60;;;;;;;5.14;100.00;98899.22;5062103;28;20033;-88
2024/02/23 07:41:30;;;;;;;13.23;2.70;;;;;;;5.13;100.00;98883.50;5060568;28;20022;-87
2024/02/23 07:43:55;;;;;;;13.18;2.60;;;;;;;5.18;100.00;98886.94;5063816;28;20032;-86
2024/02/23 07:46:22;;;;;;;11.70;2.72;;;;;;;5.22;100.00;98875.59;5060754;28;20044;-85
2024/02/23 07:48:48;;;;;;;16.15;2.65;;;;;;;5.18;100.00;98884.31;5054827;28;20037;-82
2024/02/23 07:51:13;;;;;;;12.73;2.45;;;;;;;5.18;100.00;98890.44;5062962;28;20036;-82
2024/02/23 07:53:39;;;;;;;15.60;2.90;;;;;;;5.19;100.00;98884.31;5061638;28;20365;-87
2024/02/23 07:56:07;;;;;;;14.00;2.70;;;;;;;5.21;100.00;98864.25;5061691;28;20476;-85
2024/02/23 07:58:32;;;;;;;16.63;2.88;;;;;;;5.22;100.00;98870.34;5062497;28;20502;-87
2024/02/23 08:00:57;;;;;;;14.95;2.60;;;;;;;5.23;100.00;98872.09;5061156;28;20037;-86
2024/02/23 08:03:23;;;;;;;14.63;2.55;;;;;;;5.30;100.00;98850.22;5063560;28;20051;-87
2024/02/23 08:05:48;;;;;;;13.38;2.70;;;;;;;5.39;100.00;98873.72;5056308;28;20064;-87
2024/02/23 08:08:14;;;;;;;10.82;2.47;;;;;;;5.47;100.00;98860.56;5063056;28;20032;-87
2024/02/23 08:10:39;;;;;;;14.68;2.45;;;;;;;5.49;100.00;98861.47;5061463;28;20052;-87
2024/02/23 08:13:04;;;;;;;15.73;2.60;;;;;;;5.49;100.00;98860.56;5061938;28;20108;-84
2024/02/23 08:15:30;;;;;;;12.98;2.67;;;;;;;5.46;100.00;98855.34;5062445;28;20040;-78
2024/02/23 08:17:55;;;;;;;13.52;2.70;;;;;;;5.49;100.00;98853.59;5059139;28;20044;-74
2024/02/23 08:20:21;;;;;;;15.57;2.70;;;;;;;5.52;100.00;98863.16;5063784;28;20025;-72
2024/02/23 08:22:46;;;;;;;13.70;2.45;;;;;;;5.55;100.00;98864.03;5060354;28;20033;-72
2024/02/23 08:25:12;;;;;;;15.80;2.65;;;;;;;5.54;100.00;98857.03;5062515;28;20029;-72
2024/02/23 08:27:37;;;;;;;13.20;2.40;;;;;;;5.56;100.00;98865.78;5061680;28;20062;-73
2024/02/23 08:30:03;;;;;;;14.90;2.60;;;;;;;5.59;100.00;98859.63;5061265;28;20025;-73
2024/02/23 08:32:28;;;;;;;13.23;2.70;;;;;;;5.62;100.00;98848.25;5062590;28;20029;-72
2024/02/23 08:34:59;;;;;;;12.25;2.25;;;;;;;5.63;100.00;98865.72;5061806;28;20032;-74
2024/02/23 08:37:27;;;;;;;17.75;2.80;;;;;;;5.61;100.00;98851.75;5066822;28;20075;-73
2024/02/23 08:39:53;;;;;;;14.27;2.60;;;;;;;5.63;100.00;98856.09;5063437;28;20025;-72
2024/02/23 08:42:18;;;;;;;13.48;2.50;;;;;;;5.65;100.00;98864.84;5066938;28;20147;-74
2024/02/23 08:44:43;;;;;;;15.98;2.80;;;;;;;5.69;100.00;98856.03;5064081;28;20419;-72
2024/02/23 08:47:09;;;;;;;13.52;2.80;;;;;;;5.73;100.00;98851.66;5065241;28;20040;-72
2024/02/23 08:49:34;;;;;;;15.57;2.58;;;;;;;5.78;100.00;98867.34;5065410;28;20028;-73
2024/02/23 08:52:00;;;;;;;13.48;2.60;;;;;;;5.83;100.00;98858.56;5063098;28;20064;-72
2024/02/23 08:54:25;;;;;;;14.27;2.63;;;;;;;5.88;100.00;98850.66;5066506;28;20033;-72
2024/02/23 08:56:50;;;;;;;11.85;2.30;;;;;;;5.89;100.00;98853.28;5063361;28;20060;-72
2024/02/23 08:59:16;;;;;;;16.08;2.70;;;;;;;5.89;100.00;98866.38;5066057;28;20105;-75
2024/02/23 09:01:41;;;;;;;16.55;2.95;;;;;;;5.86;100.00;98873.41;5064197;28;20035;-71
2024/02/23 09:04:06;;;;;;;12.52;2.60;;;;;;;5.94;100.00;98859.38;5064719;28;20081;-88
2024/02/23 09:06:32;;;;;;;14.05;3.00;;;;;;;5.94;100.00;98846.25;5065222;28;20024;-87
2024/02/23 09:08:58;;;;;;;13.35;2.65;;;;;;;5.98;100.00;98875.97;5063940;28;20025;-88
2024/02/23 09:11:23;;;;;;;14.13;2.60;;;;;;;6.03;100.00;98865.44;5066521;28;20520;-85
2024/02/23 09:13:49;;;;;;;15.25;2.90;;;;;;;6.04;100.00;98861.94;5058671;28;20025;-89
2024/02/23 09:16:14;;;;;;;12.50;2.55;;;;;;;6.07;100.00;98864.53;5065777;28;20040;-88
2024/02/23 09:18:40;;;;;;;14.85;2.60;;;;;;;6.05;100.00;98871.53;5063875;28;20090;-85
2024/02/23 09:21:05;;;;;;;12.50;2.42;;;;;;;5.90;100.00;98859.41;5064230;28;20528;-87
2024/02/23 09:23:32;;;;;;;16.88;3.00;;;;;;;5.89;100.00;98869.00;5065305;28;20024;-82
2024/02/23 09:25:57;;;;;;;15.38;2.65;;;;;;;5.96;100.00;98868.97;5061840;28;20037;-83
2024/02/23 09:28:23;;;;;;;15.60;2.80;;;;;;;6.05;100.00;98861.06;5066143;28;20028;-86
2024/02/23 09:30:48;;;;;;;11.95;2.60;;;;;;;6.11;100.00;98884.59;5062840;28;20024;-87
2024/02/23 09:33:13;;;;;;;16.15;2.88;;;;;;;5.98;100.00;98862.00;5065020;28;20096;-87
2024/02/23 09:35:39;;;;;;;14.45;2.90;;;;;;;5.88;100.00;98862.03;5063908;28;20037;-83
2024/02/23 09:38:04;;;;;;;14.32;2.60;;;;;;;5.91;100.00;98883.00;5063810;28;20029;-88
2024/02/23 09:40:30;;;;;;;12.43;2.70;;;;;;;5.91;100.00;98869.00;5065052;28;20032;-77
2024/02/23 09:42:57;;;;;;;12.95;2.80;;;;;;;5.97;100.00;98865.44;5061272;28;20032;-73
2024/02/23 09:45:24;;;;;;;13.13;2.60;;;;;;;5.88;100.00;98887.38;5065277;28;20148;-72
2024/02/23 09:47:50;;;;;;;14.32;2.80;;;;;;;5.68;100.00;98895.38;5057875;28;20122;-72
2024/02/23 09:50:17;;;;;;;10.82;2.30;;;;;;;5.56;100.00;98896.34;5065450;28;20102;-72
2024/02/23 09:52:43;;;;;;;10.63;2.70;;;;;;;5.61;100.00;98883.19;5063195;28;20037;-72
2024/02/23 09:55:09;;;;;;;12.07;2.60;;;;;;;5.63;100.00;98897.19;5063951;28;20078;-72
2024/02/23 09:57:36;;;;;;;15.57;2.60;;;;;;;5.65;100.00;98887.53;5064215;28;20501;-72
2024/02/23 10:00:06;;;;;;;13.45;2.50;;;;;;;5.67;100.00;98923.38;5062814;28;20036;-72
2024/02/23 10:02:32;;;;;;;9.93;2.60;;;;;;;5.67;100.00;98888.41;5064359;28;20071;-72
2024/02/23 10:04:59;;;;;;;11.60;2.40;;;;;;;5.75;100.00;98911.09;5062498;28;20029;-73
2024/02/23 10:07:25;;;;;;;9.85;2.42;;;;;;;5.71;100.00;98896.25;5065089;28;20124;-72
2024/02/23 10:09:50;;;;;;;8.43;2.40;;;;;;;5.76;100.00;98898.84;5061830;28;20112;-72
2024/02/23 10:12:16;;;;;;;8.20;2.30;;;;;;;5.80;100.00;98897.06;5063517;28;20029;-73
2024/02/23 10:14:42;;;;;;;11.15;2.40;;;;;;;5.82;100.00;98898.78;5063014;28;20028;-72
2024/02/23 10:17:08;;;;;;;9.25;2.45;;;;;;;5.84;100.00;98893.53;5062143;28;20033;-73
2024/02/23 10:19:33;;;;;;;8.95;2.30;;;;;;;5.92;100.00;98894.34;5063746;28;20052;-73
2024/02/23 10:21:59;;;;;;;7.75;2.30;;;;;;;5.95;100.00;98896.94;5062090;28;20037;-76
2024/02/23 10:24:25;;;;;;;10.50;2.42;;;;;;;6.09;100.00;98915.25;5064898;28;20021;-72
2024/02/23 10:26:51;;;;;;;9.75;2.40;;;;;;;6.13;100.00;98901.22;5056309;28;20036;-73
2024/02/23 10:29:17;;;;;;;9.32;2.53;;;;;;;6.22;100.00;98919.50;5064522;28;20567;-72
2024/02/23 10:31:47;;;;;;;12.48;2.50;;;;;;;6.22;100.00;98916.00;5062271;28;20060;-82
2024/02/23 10:34:14;;;;;;;11.32;2.35;;;;;;;6.28;100.00;98918.56;5063769;28;20357;-81
2024/02/23 10:36:43;;;;;;;10.48;2.50;;;;;;;6.35;100.00;98919.38;5062568;28;20555;-83
2024/02/23 10:39:12;;;;;;;10.80;2.50;;;;;;;6.43;100.00;98930.69;5063076;28;20064;-87
2024/02/23 10:41:43;;;;;;;9.23;2.38;;;;;;;6.41;100.00;98927.22;5063019;28;20463;-86
2024/02/23 10:44:09;;;;;;;8.45;2.15;;;;;;;6.46;100.00;98930.66;5063250;28;20074;-85
2024/02/23 10:46:35;;;;;;;10.20;2.47;;;;;;;6.41;100.00;98921.97;5061837;28;20032;-86
2024/02/23 10:49:01;;;;;;;12.65;2.92;;;;;;;6.31;100.00;98946.56;5062021;28;20464;-74
2024/02/23 10:51:27;;;;;;;10.63;2.53;;;;;;;6.29;100.00;98943.91;5064425;28;20056;-86
2024/02/23 10:53:52;;;;;;;12.68;2.60;;;;;;;6.33;100.00;98936.91;5059764;28;20098;-86
2024/02/23 10:56:19;;;;;;;11.55;2.45;;;;;;;6.34;100.00;98946.53;5064234;28;20020;-82
2024/02/23 10:58:45;;;;;;;9.73;2.55;;;;;;;6.24;100.00;98938.72;5060930;28;20032;-88
2024/02/23 11:01:12;;;;;;;11.90;2.50;;;;;;;6.33;100.00;98953.50;5062711;28;20039;-89
2024/02/23 11:03:41;;;;;;;12.93;2.60;;;;;;;6.40;100.00;98954.34;5062615;28;20047;-88
2024/02/23 11:06:07;;;;;;;11.63;2.45;;;;;;;6.41;100.00;98956.94;5062400;28;20036;-87
2024/02/23 11:08:33;;;;;;;11.98;2.60;;;;;;;6.45;100.00;98948.16;5063294;28;20028;-80
2024/02/23 11:11:07;;;;;;;11.38;2.35;;;;;;;6.51;100.00;98946.34;5061429;28;20039;-88
2024/02/23 11:13:38;;;;;;;9.85;2.40;;;;;;;6.56;100.00;98955.06;5063371;28;20040;-88
2024/02/23 11:16:05;;;;;;;12.48;2.45;;;;;;;6.58;100.00;98954.19;5061899;28;20025;-84
2024/02/23 11:18:33;;;;;;;12.05;2.70;;;;;;;6.72;100.00;98966.28;5063355;28;20487;-76
2024/02/23 11:21:01;;;;;;;10.32;2.38;;;;;;;6.83;100.00;98955.66;5061370;28;20056;-88